Dirección General De Aeronáutica Civil

Dirección Meteorológica de Chile - Servicios Climáticos

Informe General de Control de Calidad de la Estación

Listado de niveles de control de calidad para algunos parámetros
Estación Maquehue, Temuco Ad. (380013)
Fecha de Revisión de los datos :

Elementos

Registros Niveles de Control Total
Nivel 0 Nivel 1 Nivel 2 Nivel 3 Errores Porcentaje
01 Temperatura del Aire Seco 507.149 0 . 1 0.00 % 0 . 0 . 1 0.00 %
02 Temperatura de Rocío 463.845 0 . 0 . 0 . 0 . 0 0.00 %
03 Humedad Relativa del Aire 495.749 0 . 0 . 0 . 0 . 0 0.00 %
04 Temperatura Máxima PM 25.156 0 . 0 . 0 . 0 . 0 0.00 %
05 Temperatura Mínima AM 25.044 0 . 0 . 0 . 0 . 0 0.00 %
06 Viento a 10 m. de Altura 437.305 0 . 5 0.00 % 1 0.00 % 0 . 6 0.00 %
07 Agua Caida, Acumulada 6 Horas 88.667 0 . 82 0.09 % 0 . 0 . 82 0.09 %
08 Presión Atm. a Nivel de Estación (QFE) 395.561 0 . 0 . 0 . 0 . 0 0.00 %
09 Presión Atm. a Nivel Medio del Mar (QFF) 408.019 0 . 0 . 0 . 0 . 0 0.00 %
10 Presión Atm. Estándar OACI (QNH) 364.190 0 . 0 . 0 . 0 . 0 0.00 %
11 Tiempo Pasado Sinóptico 21.619 0 . 0 . 0 . 0 . 0 0.00 %
12 Tiempo Presente Sinóptico 177.216 0 . 6 0.00 % 0 . 0 . 6 0.00 %

Totales

3.409.520 . 0.0000 % . 0.0028 % . 0.0000 % . 0.0000 % 95 0.0028 %

Detalle de Errores Encontrados

Nivel Fecha del Dato Descripción Información Error Fecha Ingreso
1 1952-04-07 10:00:00 (ts - td > 5.0) y ((ww >= 40 y ww <= 49)) 45 2014-11-06 13:23:00
1 1952-04-07 11:00:00 (ts - td > 5.0) y ((ww >= 40 y ww <= 49)) 45 2014-11-06 13:23:00
1 1952-04-07 12:00:00 (ts - td > 5.0) y ((ww >= 40 y ww <= 49)) 45 2014-11-06 13:23:00
1 1973-08-07 18:00:00 ts > 5.0 y ((ww >= 70 y ww <= 79) || (ww >= 85 y ww <= 88))) 87 2012-02-08 14:21:00
1 1978-08-28 21:00:00 ts > 5.0 y ((ww >= 70 y ww <= 79) || (ww >= 85 y ww <= 88))) 87 2012-02-08 14:03:00
1 1978-11-19 15:00:00 ts > 5.0 y ((ww >= 70 y ww <= 79) || (ww >= 85 y ww <= 88))) 88 2012-02-08 14:04:00
1 1953-06-28 15:00:00 Viento calma fue mal ingresado. dd = 0 - ff = 2 2013-07-25 15:45:00
1 1953-06-28 16:00:00 Viento calma fue mal ingresado. dd = 270 - ff = 0 2013-07-25 15:39:00
1 1963-10-09 21:00:00 ff < 19kt y ((ww >= 31 y ww <= 35) o (ww == 37 o ww == 39 o ww >= 98))) 2011-08-19 14:42:00
1 1975-12-06 09:00:00 ff < 19kt y ((ww >= 31 y ww <= 35) o (ww == 37 o ww == 39 o ww >= 98))) 2011-08-09 16:09:00
1 1979-08-24 03:00:00 ff < 19kt y ((ww >= 31 y ww <= 35) o (ww == 37 o ww == 39 o ww >= 98))) 2011-08-12 14:35:00
1 1958-05-13 23:00:00 Ts debe ser mayor o igual a Td Ts=10.6 - Td=10.6 2014-04-16 18:30:00
1 2004-10-17 12:00:00 rrr = 1.8 y WW = 3 w1=1 w2=1 1.8 2011-08-16 23:09:00
1 2005-05-05 12:00:00 rrr = 0.2 y WW = 2 w1=2 w2=2 0.2 2011-08-16 23:22:00
1 2005-05-26 06:00:00 rrr = s/p y WW = 2 w1=6 w2=2 0.0 2011-08-16 23:23:00
1 2005-05-26 12:00:00 rrr = 0.2 y WW = 2 w1=0 w2=0 0.2 2011-08-16 23:23:00
1 2005-05-26 18:00:00 rrr = s/p y WW = 2 w1=6 w2=2 0.0 2011-08-16 23:23:00
1 2005-06-01 12:00:00 rrr = 0.2 y WW = 1 w1=2 w2=2 0.2 2011-08-16 23:23:00
1 2005-06-05 12:00:00 rrr = 0.2 y WW = 3 w1=1 w2=0 0.2 2011-08-16 23:23:00
1 2005-06-18 18:00:00 rrr = 0.2 y WW = 10 w1=4 w2=4 0.2 2011-08-16 23:23:00
1 2005-07-01 18:00:00 rrr = 0.2 y WW = 2 w1=2 w2=2 0.2 2011-08-16 23:24:00
1 2005-07-30 06:00:00 rrr = 3.0 y WW = 2 w1=2 w2=2 3.0 2011-08-16 23:24:00
1 2005-08-06 12:00:00 rrr = 0.2 y WW = 10 w1=1 w2=0 0.2 2011-08-16 23:25:00
1 2005-08-20 18:00:00 rrr = 1.0 y WW = 2 w1=2 w2=2 1.0 2011-08-16 23:25:00
1 2005-08-21 12:00:00 rrr = 1.4 y WW = 3 w1=2 w2=1 1.4 2011-08-16 23:25:00
1 2005-09-05 00:00:00 rrr = 3.0 y WW = 10 w1=2 w2=2 3.0 2011-08-16 23:25:00
1 2005-11-14 18:00:00 rrr = 1.8 y WW = 1 w1=2 w2=2 1.8 2011-08-16 23:27:00
1 2005-12-05 00:00:00 rrr = 1.0 y WW = 2 w1=2 w2=0 1.0 2011-08-16 23:28:00
1 2005-12-19 06:00:00 rrr = 1.2 y WW = 2 w1=2 w2=2 1.2 2011-08-16 23:28:00
1 2006-01-02 12:00:00 rrr = 0.2 y WW = 10 w1=4 w2=0 0.2 2011-08-16 23:30:00
1 2006-03-08 12:00:00 rrr = 0.4 y WW = 2 w1=2 w2=2 0.4 2011-08-16 23:32:00
1 2006-04-25 12:00:00 rrr = 1.1 y WW = 1 w1=2 w2=2 1.1 2011-08-16 23:33:00
1 2006-04-28 00:00:00 rrr = 1.0 y WW = 10 w1=2 w2=2 1.0 2011-08-16 23:33:00
1 2006-05-15 18:00:00 rrr = 0.2 y WW = 2 w1=2 w2=2 0.2 2011-08-16 23:34:00
1 2006-06-06 00:00:00 rrr = 0.4 y WW = 2 w1=2 w2=2 0.4 2011-08-16 23:34:00
1 2006-06-12 18:00:00 rrr = 2.2 y WW = 1 w1=2 w2=2 2.2 2011-08-16 23:35:00
1 2006-06-18 18:00:00 rrr = 0.4 y WW = 2 w1=2 w2=2 0.4 2011-08-16 23:35:00
1 2006-06-21 00:00:00 rrr = 1.4 y WW = 1 w1=2 w2=1 1.4 2011-08-16 23:35:00
1 2006-06-21 12:00:00 rrr = 0.4 y WW = 10 w1=1 w2=1 0.4 2011-08-16 23:35:00
1 2006-06-27 18:00:00 rrr = 0.6 y WW = 10 w1=4 w2=2 0.6 2011-08-16 23:35:00
1 2006-07-13 18:00:00 rrr = trazas y WW = 1 w1=4 w2=2 0.0 2011-08-16 23:35:00
1 2006-08-31 12:00:00 rrr = 0.2 y WW = 10 w1=4 w2=2 0.2 2011-08-16 23:37:00
1 2006-12-27 12:00:00 rrr = 0.2 y WW = 1 w1=1 w2=1 0.2 2011-08-16 23:39:00
1 2007-02-22 12:00:00 rrr = 0.3 y WW = 1 w1=2 w2=2 0.3 2011-08-17 00:01:00
1 2007-04-07 12:00:00 rrr = s/p y WW = 3 w1=8 w2=2 0.0 2011-08-17 00:02:00
1 2007-06-01 00:00:00 rrr = trazas y WW = 3 w1=2 w2=2 0.0 2011-08-17 00:03:00
1 2007-06-11 12:00:00 rrr = 0.2 y WW = 1 w1=2 w2=2 0.2 2011-08-17 00:03:00
1 2007-07-06 00:00:00 rrr = 0.2 y WW = 5 w1=2 w2=2 0.2 2011-08-17 00:04:00
1 2007-07-07 00:00:00 rrr = 0.2 y WW = 10 w1=2 w2=2 0.2 2011-08-17 00:04:00
1 2007-10-26 00:00:00 rrr = 0.2 y WW = 1 w1=2 w2=2 0.2 2011-08-17 00:07:00
1 2007-11-04 12:00:00 rrr = trazas y WW = 3 w1=2 w2=2 0.0 2011-08-17 00:07:00
1 2007-12-01 00:00:00 rrr = 0.4 y WW = 1 w1=2 w2=2 0.4 2011-08-17 00:08:00
1 2012-05-27 06:00:00 rrr = 0.2 y WW = 2 w1=1 w2=1 0.2 2012-05-27 05:56:00
1 2012-05-28 00:00:00 rrr = trazas y WW = 2 w1=2 w2=2 0.0 2012-11-27 14:52:00
1 2012-05-30 00:00:00 rrr = 2.0 y WW = 10 w1=2 w2=2 2.0 2012-05-30 00:00:00
1 2012-06-01 00:00:00 rrr = s/p y WW = 2 w1=6 w2=2 0.0 2012-11-27 14:52:00
1 2012-06-05 12:00:00 rrr = 0.2 y WW = 10 w1=4 w2=4 0.2 2012-06-05 11:56:00
1 2012-06-23 12:00:00 rrr = s/p y WW = 1 w1=6 w2=2 0.0 2012-06-23 12:12:00
1 2012-07-03 18:00:00 rrr = 0.2 y WW = 3 w1=2 w2=2 0.2 2012-07-03 17:53:00
1 2012-07-08 12:00:00 rrr = 9.6 y WW = 3 w1=2 w2=2 9.6 2012-07-08 11:55:00
1 2012-07-28 12:00:00 rrr = s/p y WW = 10 w1=5 w2=2 0.0 2012-08-01 15:21:00
1 2012-09-30 00:00:00 rrr = s/p y WW = 1 w1=6 w2=2 0.0 2012-09-29 23:52:00
1 2012-09-30 18:00:00 rrr = 0.2 y WW = 1 w1=2 w2=2 0.2 2012-09-30 17:53:00
1 2012-10-04 12:00:00 rrr = s/p y WW = 2 w1=8 w2=6 0.0 2012-10-04 12:05:00
1 2012-10-05 12:00:00 rrr = s/p y WW = 10 w1=8 w2=2 0.0 2012-10-05 12:04:00
1 2012-10-20 06:00:00 rrr = 0.4 y WW = 3 w1=2 w2=2 0.4 2012-10-20 05:53:00
1 2012-11-15 06:00:00 rrr = trazas y WW = 2 w1=2 w2=2 0.0 2012-11-15 05:55:00
1 2012-11-16 12:00:00 rrr = trazas y WW = 2 w1=2 w2=2 0.0 2012-11-16 11:56:00
1 2012-12-06 18:00:00 rrr = 1.2 y WW = 2 w1=1 w2=1 1.2 2012-12-06 18:02:00
1 2012-12-18 00:00:00 rrr = 0.2 y WW = 2 w1=2 w2=2 0.2 2012-12-17 23:59:00
1 2012-12-18 18:00:00 rrr = s/p y WW = 2 w1=8 w2=2 0.0 2012-12-18 17:58:00
1 2012-12-21 00:00:00 rrr = 1.4 y WW = 1 w1=1 w2=1 1.4 2012-12-20 23:56:00
1 2013-01-24 18:00:00 rrr = trazas y WW = 3 w1=0 w2=0 0.0 2013-01-24 17:52:00
1 2013-01-25 00:00:00 rrr = trazas y WW = 2 w1=0 w2=0 0.0 2013-01-24 23:51:00
1 2013-01-26 00:00:00 rrr = trazas y WW = 3 w1=2 w2=2 0.0 2013-01-25 23:53:00
1 2013-02-02 00:00:00 rrr = 0.8 y WW = 1 w1=1 w2=1 0.8 2013-02-01 23:53:00
1 2013-02-03 06:00:00 rrr = trazas y WW = 2 w1=0 w2=0 0.0 2013-02-03 05:55:00
1 2013-02-17 00:00:00 rrr = 2.0 y WW = 1 w1=0 w2=0 2.0 2013-02-16 23:51:00
1 2013-02-24 06:00:00 rrr = 1.0 y WW = 1 w1=2 w2=2 1.0 2013-02-24 05:51:00
1 2013-02-24 12:00:00 rrr = s/p y WW = 3 w1=8 w2=2 0.0 2013-02-24 13:12:00
1 2013-04-06 12:00:00 rrr = s/p y WW = 10 w1=8 w2=2 0.0 2013-04-06 11:51:00
1 2013-04-11 18:00:00 rrr = 2.2 y WW = 2 w1=0 w2=0 2.2 2013-04-11 17:55:00
1 2013-04-21 00:00:00 rrr = s/p y WW = 2 w1=8 w2=2 0.0 2013-04-20 23:53:00
1 2013-05-04 18:00:00 rrr = 1.8 y WW = 1 w1=2 w2=2 1.8 2013-05-04 17:54:00
1 2013-05-06 12:00:00 rrr = 0.4 y WW = 10 w1=0 w2=0 0.4 2013-05-06 11:55:00
1 2013-05-24 00:00:00 rrr = 0.2 y WW = 10 w1=2 w2=2 0.2 2013-05-23 23:52:00
1 2013-05-31 12:00:00 rrr = 3.2 y WW = 2 w1=2 w2=2 3.2 2013-05-31 11:56:00
1 2013-06-15 18:00:00 rrr = 0.6 y WW = 2 w1=2 w2=2 0.6 2013-06-15 17:52:00
1 2013-06-21 00:00:00 rrr = s/p y WW = 10 w1=5 w2=4 0.0 2013-06-20 23:55:00
1 2013-06-22 06:00:00 rrr = 4.0 y WW = 2 w1=2 w2=2 4.0 2013-06-22 05:57:00
1 2013-07-01 12:00:00 rrr = s/p y WW = 2 w1=8 w2=2 0.0 2013-07-01 11:54:00
1 2013-07-03 12:00:00 rrr = 0.2 y WW = 1 w1=2 w2=2 0.2 2013-07-03 11:52:00
1 2013-07-09 18:00:00 rrr = 1.4 y WW = 2 w1=2 w2=2 1.4 2013-07-09 17:55:00
1 2013-07-13 00:00:00 rrr = s/p y WW = 61 w1=2 w2=2 0.0 2013-07-12 23:58:00
Errores del Nivel 94
Nivel Fecha del Dato Descripción Información Error Fecha Ingreso
2 1974-06-29 07:00:00 Variación horaria de Intensidad del viento fuera de rango (1 hora Antes) 12 - 45 2011-08-09 15:19:00
Errores del Nivel 1
Informe generado el 05-03-2024 10:08
Requerimiento: RE6001